Time;durP1;ratioP1;P1;durP2;ratioP2;P2;SDS_P1;SDS_P2;PMS_P1;PMS_P2;Temp;Humidity;BMP_temperature;BMP_pressure;BME280_temperature;BME280_humidity;BME280_pressure;Samples;Min_cycle;Max_cycle;Signal;HPM_P1;HPM_P2
2021/06/24 00:00:52;;;;;;;14.93;9.20;;;17.70;99.90;;;;;;5063414;28;20496;-73
2021/06/24 00:03:18;;;;;;;16.10;10.10;;;17.70;99.90;;;;;;5058019;28;20112;-73
2021/06/24 00:05:44;;;;;;;15.45;8.85;;;17.70;99.90;;;;;;5061971;28;20107;-73
2021/06/24 00:08:11;;;;;;;16.77;9.32;;;17.70;99.90;;;;;;5055827;28;20071;-73
2021/06/24 00:10:39;;;;;;;15.82;8.30;;;17.80;99.90;;;;;;5053046;28;20025;-73
2021/06/24 00:13:05;;;;;;;13.68;8.52;;;17.70;99.90;;;;;;5053415;28;20044;-73
2021/06/24 00:15:33;;;;;;;14.70;9.32;;;17.70;99.90;;;;;;5060758;28;20470;-73
2021/06/24 00:17:58;;;;;;;15.27;10.35;;;17.70;99.90;;;;;;5050093;28;20469;-73
2021/06/24 00:20:24;;;;;;;19.95;10.15;;;17.70;99.90;;;;;;5057004;28;20086;-73
2021/06/24 00:22:50;;;;;;;18.40;9.95;;;17.70;99.90;;;;;;5051028;28;20029;-73
2021/06/24 00:25:16;;;;;;;15.05;10.20;;;17.70;99.90;;;;;;5059476;28;20397;-73
2021/06/24 00:27:42;;;;;;;16.77;10.60;;;17.80;99.90;;;;;;5057273;28;20106;-73
2021/06/24 00:30:09;;;;;;;18.05;11.00;;;17.80;99.90;;;;;;5056206;28;20484;-73
2021/06/24 00:32:35;;;;;;;15.85;10.82;;;17.80;99.90;;;;;;5056913;28;20017;-73
2021/06/24 00:35:01;;;;;;;12.18;10.52;;;17.80;99.90;;;;;;5054154;28;20175;-73
2021/06/24 00:37:31;;;;;;;12.75;9.93;;;17.70;99.90;;;;;;5059520;28;20021;-73
2021/06/24 00:39:57;;;;;;;23.58;11.05;;;17.70;99.90;;;;;;5057830;28;20028;-73
2021/06/24 00:42:26;;;;;;;14.63;10.63;;;17.80;99.90;;;;;;5056297;28;20099;-73
2021/06/24 00:44:52;;;;;;;12.30;10.45;;;17.80;99.90;;;;;;5063270;28;20128;-73
2021/06/24 00:47:18;;;;;;;16.52;10.50;;;17.70;99.90;;;;;;5059376;28;20092;-73
2021/06/24 00:49:44;;;;;;;13.20;9.80;;;17.70;99.90;;;;;;5053788;28;20480;-73
2021/06/24 00:52:09;;;;;;;18.73;12.05;;;17.70;99.90;;;;;;5057226;28;20365;-73
2021/06/24 00:54:35;;;;;;;15.45;11.45;;;17.70;99.90;;;;;;5061115;28;20021;-73
2021/06/24 00:57:02;;;;;;;25.13;12.75;;;17.70;99.90;;;;;;5061905;28;20485;-72
2021/06/24 00:59:27;;;;;;;19.55;12.18;;;17.80;99.90;;;;;;5065317;28;20091;-73
2021/06/24 01:01:53;;;;;;;18.35;11.23;;;17.80;99.90;;;;;;5063629;28;20024;-73
2021/06/24 01:04:22;;;;;;;17.48;11.38;;;17.70;99.90;;;;;;5065961;28;20048;-73
2021/06/24 01:06:51;;;;;;;18.77;10.85;;;17.70;99.90;;;;;;5058482;28;20039;-72
2021/06/24 01:09:17;;;;;;;18.77;10.98;;;17.70;99.90;;;;;;5065040;28;20043;-73
2021/06/24 01:11:43;;;;;;;15.75;11.95;;;17.70;99.90;;;;;;5055569;28;20013;-73
2021/06/24 01:14:09;;;;;;;18.90;12.45;;;17.70;99.90;;;;;;5062428;28;20033;-73
2021/06/24 01:16:35;;;;;;;15.43;11.63;;;17.60;99.90;;;;;;5057701;28;20018;-73
2021/06/24 01:19:01;;;;;;;14.68;10.68;;;17.50;99.90;;;;;;5053167;28;20033;-73
2021/06/24 01:21:27;;;;;;;13.93;11.48;;;17.50;99.90;;;;;;5060427;28;20040;-73
2021/06/24 01:23:53;;;;;;;16.48;11.55;;;17.50;99.90;;;;;;5062608;28;20401;-73
2021/06/24 01:26:18;;;;;;;16.83;10.55;;;17.60;99.90;;;;;;5064823;28;20076;-73
2021/06/24 01:28:45;;;;;;;18.23;11.68;;;17.60;99.90;;;;;;5062937;28;20032;-74
2021/06/24 01:31:11;;;;;;;12.77;10.82;;;17.60;99.90;;;;;;5064832;28;20025;-73
2021/06/24 01:33:37;;;;;;;13.68;11.00;;;17.60;99.90;;;;;;5060861;28;20078;-72
2021/06/24 01:36:05;;;;;;;20.45;10.05;;;17.60;99.90;;;;;;5060933;28;20043;-73
2021/06/24 01:38:31;;;;;;;17.98;10.38;;;17.60;99.90;;;;;;5055147;28;20021;-73
2021/06/24 01:40:57;;;;;;;18.30;10.82;;;17.50;99.90;;;;;;5059418;28;20079;-72
2021/06/24 01:43:24;;;;;;;18.13;11.10;;;17.50;99.90;;;;;;5064287;28;20536;-73
2021/06/24 01:45:54;;;;;;;17.00;11.70;;;17.60;99.90;;;;;;5061812;28;20469;-73
2021/06/24 01:48:21;;;;;;;16.92;11.00;;;17.60;99.90;;;;;;5057226;28;20024;-72
2021/06/24 01:50:47;;;;;;;15.13;10.00;;;17.60;99.90;;;;;;5057930;28;20017;-73
2021/06/24 01:53:14;;;;;;;14.43;10.57;;;17.70;99.90;;;;;;5061399;28;20052;-73
2021/06/24 01:55:40;;;;;;;19.05;11.20;;;17.60;99.90;;;;;;5062495;28;20567;-72
2021/06/24 01:58:08;;;;;;;14.90;10.88;;;17.60;99.90;;;;;;5054110;28;20029;-73
2021/06/24 02:00:34;;;;;;;14.80;10.50;;;17.60;99.90;;;;;;5062205;28;20481;-72
2021/06/24 02:03:01;;;;;;;12.95;9.60;;;17.60;99.90;;;;;;5061367;28;20507;-72
2021/06/24 02:05:27;;;;;;;14.25;9.85;;;17.60;99.90;;;;;;5053766;28;20032;-73
2021/06/24 02:07:53;;;;;;;13.63;9.75;;;17.60;99.90;;;;;;5054507;28;20067;-72
2021/06/24 02:10:19;;;;;;;21.25;9.30;;;17.60;99.90;;;;;;5067403;28;20060;-73
2021/06/24 02:12:45;;;;;;;16.20;10.63;;;17.60;99.90;;;;;;5064116;28;20499;-73
2021/06/24 02:15:13;;;;;;;16.73;9.70;;;17.60;99.90;;;;;;5055915;28;20033;-72
2021/06/24 02:17:39;;;;;;;16.65;10.80;;;17.60;99.90;;;;;;5063379;28;20021;-73
2021/06/24 02:20:12;;;;;;;12.93;10.43;;;17.60;99.90;;;;;;5062469;28;20067;-73
2021/06/24 02:22:39;;;;;;;10.80;9.68;;;17.60;99.90;;;;;;5052232;28;20043;-73
2021/06/24 02:25:06;;;;;;;14.48;9.63;;;17.60;99.90;;;;;;5051745;28;20116;-73
2021/06/24 02:27:32;;;;;;;17.30;10.32;;;17.60;99.90;;;;;;5059216;28;20065;-73
2021/06/24 02:29:58;;;;;;;17.23;9.50;;;17.50;99.90;;;;;;5061152;28;20037;-73
2021/06/24 02:32:24;;;;;;;13.60;9.25;;;17.50;99.90;;;;;;5061162;28;20032;-74
2021/06/24 02:34:51;;;;;;;12.38;9.57;;;17.50;99.90;;;;;;5061119;28;20428;-73
2021/06/24 02:37:16;;;;;;;19.10;9.00;;;17.50;99.90;;;;;;5053968;28;20029;-73
2021/06/24 02:39:42;;;;;;;12.80;9.90;;;17.50;99.90;;;;;;5064881;28;20029;-73
2021/06/24 02:42:08;;;;;;;18.70;10.48;;;17.50;99.90;;;;;;5059693;28;20378;-73
2021/06/24 02:44:33;;;;;;;16.80;10.85;;;17.50;99.90;;;;;;5057431;28;20037;-73
2021/06/24 02:46:59;;;;;;;15.32;9.98;;;17.60;99.90;;;;;;5056849;28;20120;-73
2021/06/24 02:49:24;;;;;;;16.30;11.52;;;17.60;99.90;;;;;;5055282;28;20036;-73
2021/06/24 02:51:50;;;;;;;16.90;10.23;;;17.60;99.90;;;;;;5054754;28;20017;-73
2021/06/24 02:54:17;;;;;;;15.98;9.40;;;17.60;99.90;;;;;;5058796;28;20079;-73
2021/06/24 02:56:43;;;;;;;20.35;9.88;;;17.50;99.90;;;;;;5060663;28;20021;-73
2021/06/24 02:59:09;;;;;;;16.60;9.55;;;17.50;99.90;;;;;;5062368;28;20017;-73
2021/06/24 03:01:38;;;;;;;18.23;11.68;;;17.50;99.90;;;;;;5056544;28;20025;-73
2021/06/24 03:04:08;;;;;;;17.60;10.07;;;17.50;99.90;;;;;;5063760;28;20040;-73
2021/06/24 03:06:35;;;;;;;15.52;10.32;;;17.50;99.90;;;;;;5062250;28;20423;-73
2021/06/24 03:09:05;;;;;;;22.08;11.98;;;17.50;99.90;;;;;;5058003;28;20505;-73
2021/06/24 03:11:31;;;;;;;18.23;10.48;;;17.40;99.90;;;;;;5054847;28;20024;-73
2021/06/24 03:13:56;;;;;;;14.52;9.73;;;17.40;99.90;;;;;;5066067;28;20024;-73
2021/06/24 03:16:22;;;;;;;15.05;10.30;;;17.50;99.90;;;;;;5056240;28;20025;-73
2021/06/24 03:18:49;;;;;;;17.42;10.20;;;17.50;99.90;;;;;;5059752;28;20426;-73
2021/06/24 03:21:16;;;;;;;18.33;10.30;;;17.50;99.90;;;;;;5060453;28;20024;-73
2021/06/24 03:23:42;;;;;;;15.73;9.70;;;17.60;99.90;;;;;;5060964;28;20538;-73
2021/06/24 03:26:07;;;;;;;13.40;9.65;;;17.50;99.90;;;;;;5053442;28;20037;-73
2021/06/24 03:28:33;;;;;;;15.13;10.65;;;17.50;99.90;;;;;;5054181;28;20029;-73
2021/06/24 03:30:58;;;;;;;17.30;10.77;;;17.40;99.90;;;;;;5063740;28;20392;-74
2021/06/24 03:33:25;;;;;;;16.25;9.85;;;17.50;99.90;;;;;;5060639;28;20107;-73
2021/06/24 03:35:51;;;;;;;19.55;11.20;;;17.50;99.90;;;;;;5058395;28;20432;-73
2021/06/24 03:38:17;;;;;;;19.08;10.27;;;17.50;99.90;;;;;;5064693;28;20534;-73
2021/06/24 03:40:43;;;;;;;15.52;9.40;;;17.50;99.90;;;;;;5054782;28;20489;-73
2021/06/24 03:43:09;;;;;;;14.93;10.13;;;17.50;99.90;;;;;;5057894;28;20025;-73
2021/06/24 03:45:35;;;;;;;17.02;10.20;;;17.50;99.90;;;;;;5057399;28;20040;-73
2021/06/24 03:48:00;;;;;;;16.60;10.38;;;17.50;99.90;;;;;;5055998;28;20135;-73
2021/06/24 03:50:26;;;;;;;16.40;10.90;;;17.50;99.90;;;;;;5063797;28;20483;-73
2021/06/24 03:52:52;;;;;;;17.50;9.85;;;17.50;99.90;;;;;;5066854;28;20428;-72
2021/06/24 03:55:19;;;;;;;12.23;10.45;;;17.40;99.90;;;;;;5058581;28;20469;-73
2021/06/24 03:57:45;;;;;;;21.65;11.18;;;17.40;99.90;;;;;;5054856;28;20022;-73
2021/06/24 04:00:12;;;;;;;19.95;12.15;;;17.40;99.90;;;;;;5051707;28;20021;-73
2021/06/24 04:02:37;;;;;;;18.55;10.68;;;17.40;99.90;;;;;;5060532;28;20021;-73
2021/06/24 04:05:03;;;;;;;16.95;11.02;;;17.50;99.90;;;;;;5060341;28;20059;-73
2021/06/24 04:07:29;;;;;;;17.42;11.85;;;17.40;99.90;;;;;;5050198;28;20051;-73
2021/06/24 04:09:54;;;;;;;18.83;10.88;;;17.40;99.90;;;;;;5056915;28;20059;-73
2021/06/24 04:12:20;;;;;;;13.77;10.50;;;17.40;99.90;;;;;;5060674;28;20405;-73
2021/06/24 04:14:46;;;;;;;22.35;12.38;;;17.30;99.90;;;;;;5055438;28;20108;-73
2021/06/24 04:17:11;;;;;;;18.60;11.60;;;17.30;99.90;;;;;;5062084;28;20040;-73
2021/06/24 04:19:37;;;;;;;24.92;12.77;;;17.40;99.90;;;;;;5059274;28;20029;-73
2021/06/24 04:22:03;;;;;;;24.00;13.13;;;17.40;99.90;;;;;;5061400;28;20075;-73
2021/06/24 04:24:28;;;;;;;16.33;12.07;;;17.40;99.90;;;;;;5058498;28;20041;-73
2021/06/24 04:26:54;;;;;;;16.05;12.38;;;17.30;99.90;;;;;;5053359;28;20033;-73
2021/06/24 04:29:20;;;;;;;19.00;12.80;;;17.40;99.90;;;;;;5063920;28;20040;-73
2021/06/24 04:31:45;;;;;;;20.73;12.90;;;17.40;99.90;;;;;;5067460;28;20392;-73
2021/06/24 04:34:11;;;;;;;17.38;13.45;;;17.30;99.90;;;;;;5062571;28;20025;-73
2021/06/24 04:36:42;;;;;;;23.38;14.75;;;17.30;99.90;;;;;;5065711;28;20498;-73
2021/06/24 04:39:07;;;;;;;18.73;12.85;;;17.30;99.90;;;;;;5065733;28;20476;-73
2021/06/24 04:41:33;;;;;;;23.38;15.13;;;17.30;99.90;;;;;;5064834;28;20024;-73
2021/06/24 04:43:58;;;;;;;19.45;13.85;;;17.30;99.90;;;;;;5067158;28;20044;-73
2021/06/24 04:46:24;;;;;;;19.20;12.95;;;17.30;99.90;;;;;;5061411;28;20670;-73
2021/06/24 04:48:50;;;;;;;19.70;14.63;;;17.30;99.90;;;;;;5061174;28;20028;-73
2021/06/24 04:51:15;;;;;;;19.90;12.70;;;17.30;99.90;;;;;;5059923;28;20025;-73
2021/06/24 04:53:41;;;;;;;23.98;13.57;;;17.30;99.90;;;;;;5062183;28;20029;-73
2021/06/24 04:56:06;;;;;;;20.75;14.13;;;17.30;99.90;;;;;;5065365;28;20032;-73
2021/06/24 04:58:32;;;;;;;15.82;13.55;;;17.30;99.90;;;;;;5059739;28;20029;-73
2021/06/24 05:00:58;;;;;;;16.90;12.77;;;17.30;99.90;;;;;;5082633;28;20078;-73
2021/06/24 05:03:24;;;;;;;26.98;15.85;;;17.30;99.90;;;;;;5059160;28;20515;-73
2021/06/24 05:05:49;;;;;;;20.08;13.55;;;17.30;99.90;;;;;;5060353;28;20021;-73
2021/06/24 05:08:20;;;;;;;21.38;14.75;;;17.30;99.90;;;;;;5062259;28;20024;-74
2021/06/24 05:10:46;;;;;;;28.42;15.43;;;17.30;99.90;;;;;;5056700;28;20358;-74
2021/06/24 05:13:12;;;;;;;18.15;12.80;;;17.30;99.90;;;;;;5060304;28;20013;-75
2021/06/24 05:15:42;;;;;;;21.08;14.73;;;17.30;99.90;;;;;;5059572;28;20100;-74
2021/06/24 05:18:08;;;;;;;24.80;14.70;;;17.30;99.90;;;;;;5057911;28;20025;-74
2021/06/24 05:20:34;;;;;;;23.45;14.23;;;17.30;99.90;;;;;;5064942;28;20032;-74
2021/06/24 05:22:59;;;;;;;21.20;14.40;;;17.30;99.90;;;;;;5055657;28;20121;-74
2021/06/24 05:25:25;;;;;;;21.95;14.88;;;17.30;99.90;;;;;;5059176;28;20473;-74
2021/06/24 05:27:51;;;;;;;26.13;14.55;;;17.40;99.90;;;;;;5060631;28;20028;-74
2021/06/24 05:30:17;;;;;;;22.60;14.57;;;17.40;99.90;;;;;;5058571;28;20054;-74
2021/06/24 05:32:44;;;;;;;20.58;14.40;;;17.40;99.90;;;;;;5059126;28;20032;-74
2021/06/24 05:35:10;;;;;;;19.02;12.80;;;17.50;99.90;;;;;;5056457;28;20016;-74
2021/06/24 05:37:36;;;;;;;23.65;14.23;;;17.50;99.90;;;;;;5051876;28;20151;-74
2021/06/24 05:40:03;;;;;;;21.45;14.88;;;17.40;99.90;;;;;;5054757;28;20025;-75
2021/06/24 05:42:29;;;;;;;23.70;15.35;;;17.50;99.90;;;;;;5060994;28;20121;-74
2021/06/24 05:44:55;;;;;;;23.67;14.27;;;17.50;99.90;;;;;;5057338;28;20029;-74
2021/06/24 05:47:21;;;;;;;22.05;14.23;;;17.40;99.90;;;;;;5060697;28;20017;-74
2021/06/24 05:49:46;;;;;;;19.25;14.48;;;17.50;99.90;;;;;;5059938;28;20531;-74
2021/06/24 05:52:12;;;;;;;21.23;13.35;;;17.50;99.90;;;;;;5059541;28;20040;-74
2021/06/24 05:54:38;;;;;;;23.92;14.82;;;17.60;99.90;;;;;;5060318;28;20032;-74
2021/06/24 05:57:04;;;;;;;18.85;13.73;;;17.60;99.90;;;;;;5056393;28;20033;-74
2021/06/24 05:59:29;;;;;;;25.17;13.10;;;17.50;99.90;;;;;;5056754;28;20025;-72
2021/06/24 06:01:55;;;;;;;18.45;12.20;;;17.60;99.90;;;;;;5059558;28;20097;-72
2021/06/24 06:04:20;;;;;;;17.38;13.30;;;17.50;99.90;;;;;;5060522;28;20128;-73
2021/06/24 06:06:47;;;;;;;17.75;11.13;;;17.60;99.90;;;;;;5055094;28;20027;-74
2021/06/24 06:09:13;;;;;;;18.30;13.20;;;17.60;99.90;;;;;;5055610;28;20102;-74
2021/06/24 06:11:39;;;;;;;23.67;13.88;;;17.60;99.90;;;;;;5071047;28;20473;-74
2021/06/24 06:14:04;;;;;;;18.42;12.82;;;17.60;99.90;;;;;;5067687;28;20020;-74
2021/06/24 06:16:30;;;;;;;21.30;13.65;;;17.60;99.90;;;;;;5061420;28;20071;-74
2021/06/24 06:18:56;;;;;;;20.63;12.55;;;17.60;99.90;;;;;;5058751;28;20025;-74
2021/06/24 06:21:23;;;;;;;21.35;13.10;;;17.70;99.90;;;;;;5058520;28;20055;-74
2021/06/24 06:23:49;;;;;;;20.67;14.20;;;17.80;99.90;;;;;;5063069;28;20029;-74
2021/06/24 06:26:14;;;;;;;17.98;13.18;;;17.80;99.90;;;;;;5062890;28;20024;-74
2021/06/24 06:28:40;;;;;;;16.33;12.82;;;17.90;99.90;;;;;;5077175;28;20040;-74
2021/06/24 06:31:05;;;;;;;19.20;13.05;;;18.00;99.90;;;;;;5059765;28;20376;-74
2021/06/24 06:33:31;;;;;;;19.60;13.82;;;18.00;99.90;;;;;;5053065;28;20059;-74
2021/06/24 06:35:57;;;;;;;22.10;13.55;;;18.00;99.90;;;;;;5059610;28;20078;-74
2021/06/24 06:38:23;;;;;;;26.45;13.45;;;18.00;99.90;;;;;;5061842;28;20059;-74
2021/06/24 06:40:50;;;;;;;22.20;15.05;;;18.00;99.90;;;;;;5050335;28;20032;-73
2021/06/24 06:43:18;;;;;;;21.40;13.48;;;18.00;99.90;;;;;;5054887;28;20029;-75
2021/06/24 06:45:45;;;;;;;24.88;15.70;;;18.10;99.90;;;;;;5063739;28;20123;-74
2021/06/24 06:48:11;;;;;;;18.50;13.50;;;18.00;99.90;;;;;;5057483;28;20104;-74
2021/06/24 06:50:38;;;;;;;20.58;13.27;;;18.00;99.90;;;;;;5061248;28;20134;-71
2021/06/24 06:53:05;;;;;;;20.40;14.80;;;18.10;99.90;;;;;;5057982;28;20028;-72
2021/06/24 06:55:31;;;;;;;23.67;14.70;;;18.10;99.90;;;;;;5063475;28;20042;-73
2021/06/24 06:57:58;;;;;;;19.45;12.65;;;18.20;99.90;;;;;;5054648;28;20476;-73
2021/06/24 07:00:24;;;;;;;21.63;14.18;;;18.20;99.90;;;;;;5058605;28;20032;-73
2021/06/24 07:02:51;;;;;;;18.20;13.20;;;18.20;99.90;;;;;;5054327;28;20025;-73
2021/06/24 07:05:17;;;;;;;20.42;14.07;;;18.20;99.90;;;;;;5057677;28;20029;-73
2021/06/24 07:07:42;;;;;;;17.33;13.10;;;18.30;99.90;;;;;;5072325;28;20017;-73
2021/06/24 07:10:09;;;;;;;20.98;12.27;;;18.30;99.90;;;;;;5060894;28;20485;-73
2021/06/24 07:12:34;;;;;;;17.27;11.80;;;18.20;99.90;;;;;;5060488;28;20110;-73
2021/06/24 07:15:00;;;;;;;19.85;12.40;;;18.30;99.90;;;;;;5064384;28;20130;-72
2021/06/24 07:17:27;;;;;;;15.05;11.05;;;18.40;99.90;;;;;;5050512;28;20043;-73
2021/06/24 07:19:53;;;;;;;27.08;12.88;;;18.40;99.90;;;;;;5028515;28;20425;-73
2021/06/24 07:22:19;;;;;;;13.05;11.43;;;18.40;99.90;;;;;;5047534;28;20492;-73
2021/06/24 07:24:45;;;;;;;21.40;12.02;;;18.40;99.90;;;;;;5051954;28;20529;-73
2021/06/24 07:27:10;;;;;;;16.58;11.40;;;18.40;99.90;;;;;;5054067;28;20029;-73
2021/06/24 07:29:36;;;;;;;15.23;11.15;;;18.40;99.90;;;;;;5053345;28;20033;-73
2021/06/24 07:32:02;;;;;;;19.02;11.60;;;18.40;99.90;;;;;;5050499;28;20057;-72
2021/06/24 07:34:28;;;;;;;17.23;11.90;;;18.50;99.90;;;;;;5053622;28;20481;-72
2021/06/24 07:36:53;;;;;;;16.77;12.73;;;18.60;99.90;;;;;;5052206;28;20412;-73
2021/06/24 07:39:19;;;;;;;16.17;12.00;;;18.50;99.90;;;;;;5048015;28;20021;-72
2021/06/24 07:41:45;;;;;;;12.80;10.85;;;18.60;99.90;;;;;;5051450;28;20091;-73
2021/06/24 07:44:10;;;;;;;14.95;10.75;;;18.70;99.90;;;;;;5047728;28;20120;-73
2021/06/24 07:46:37;;;;;;;15.05;9.70;;;18.80;99.90;;;;;;5047068;28;20028;-73
2021/06/24 07:49:03;;;;;;;17.50;10.05;;;18.80;99.90;;;;;;5051403;28;20059;-73
2021/06/24 07:51:29;;;;;;;18.42;11.65;;;18.90;99.90;;;;;;5053768;28;20025;-74
2021/06/24 07:53:54;;;;;;;15.43;11.63;;;18.80;99.90;;;;;;5054374;28;20037;-74
2021/06/24 07:56:20;;;;;;;16.70;10.88;;;18.70;99.90;;;;;;5055138;28;20032;-73
2021/06/24 07:58:48;;;;;;;16.08;11.60;;;18.80;99.90;;;;;;5055287;28;20035;-73
2021/06/24 08:01:14;;;;;;;15.20;10.85;;;18.90;99.90;;;;;;5054578;28;20033;-73
2021/06/24 08:03:40;;;;;;;15.50;11.60;;;18.90;99.90;;;;;;5055712;28;20102;-73
2021/06/24 08:06:06;;;;;;;18.48;12.43;;;18.60;99.90;;;;;;5059449;28;20041;-73
2021/06/24 08:08:32;;;;;;;12.90;11.32;;;18.60;99.90;;;;;;5059997;28;20480;-73
2021/06/24 08:10:58;;;;;;;19.85;12.02;;;18.60;99.90;;;;;;5059702;28;20029;-73
2021/06/24 08:13:25;;;;;;;19.70;12.23;;;18.60;99.90;;;;;;5060305;28;20108;-73
2021/06/24 08:15:52;;;;;;;19.40;12.50;;;18.70;99.90;;;;;;5061741;28;20021;-73
2021/06/24 08:18:18;;;;;;;16.55;12.13;;;18.80;99.90;;;;;;5061440;28;20503;-73
2021/06/24 08:20:44;;;;;;;12.27;10.40;;;18.90;99.90;;;;;;5055742;28;20315;-73
2021/06/24 08:23:09;;;;;;;15.82;12.65;;;18.90;99.90;;;;;;5053680;28;20029;-73
2021/06/24 08:25:35;;;;;;;19.98;11.75;;;18.90;99.90;;;;;;5064029;28;20032;-73
2021/06/24 08:28:01;;;;;;;13.20;11.77;;;19.00;99.90;;;;;;5062827;28;20036;-73
2021/06/24 08:30:27;;;;;;;15.13;10.82;;;19.20;99.90;;;;;;5062318;28;20142;-73
2021/06/24 08:32:53;;;;;;;17.92;11.60;;;19.30;99.90;;;;;;5057491;28;20035;-72
2021/06/24 08:35:18;;;;;;;13.82;11.68;;;19.40;99.90;;;;;;5057118;28;20017;-73
2021/06/24 08:37:47;;;;;;;17.33;11.65;;;19.50;99.90;;;;;;5065131;28;20152;-73
2021/06/24 08:40:14;;;;;;;16.15;11.80;;;19.50;99.90;;;;;;5049318;28;20033;-73
2021/06/24 08:42:40;;;;;;;17.40;12.40;;;19.50;99.90;;;;;;5054462;28;20504;-74
2021/06/24 08:45:08;;;;;;;17.08;12.57;;;19.50;99.90;;;;;;5051128;28;20120;-74
2021/06/24 08:47:35;;;;;;;14.40;10.90;;;19.40;99.90;;;;;;5051932;28;20495;-73
2021/06/24 08:50:01;;;;;;;16.33;11.45;;;19.40;99.90;;;;;;5055796;28;20461;-74
2021/06/24 08:52:28;;;;;;;19.05;11.43;;;19.30;99.90;;;;;;5061872;28;20036;-73
2021/06/24 08:54:54;;;;;;;19.52;11.95;;;19.30;99.90;;;;;;5054675;28;20564;-74
2021/06/24 08:57:20;;;;;;;13.73;12.10;;;19.30;99.90;;;;;;5057130;28;20028;-74
2021/06/24 08:59:46;;;;;;;15.90;11.73;;;19.40;99.90;;;;;;5054774;28;20024;-74
2021/06/24 09:02:14;;;;;;;17.88;11.93;;;19.50;99.90;;;;;;5060845;28;20060;-74
2021/06/24 09:04:48;;;;;;;16.33;11.77;;;19.50;99.90;;;;;;5046012;28;20033;-73
2021/06/24 09:07:22;;;;;;;15.18;11.57;;;19.60;99.90;;;;;;5056869;28;21002;-74
2021/06/24 09:09:56;;;;;;;12.82;10.23;;;19.70;99.90;;;;;;5057465;28;20052;-74
2021/06/24 09:12:22;;;;;;;14.32;8.95;;;19.70;99.90;;;;;;5065613;28;20483;-73
2021/06/24 09:14:55;;;;;;;10.90;8.23;;;20.00;99.90;;;;;;5053267;28;20061;-73
2021/06/24 09:17:35;;;;;;;10.75;7.75;;;20.10;99.90;;;;;;5060535;28;20355;-73
2021/06/24 09:20:04;;;;;;;11.77;9.25;;;20.20;99.90;;;;;;5057135;28;20056;-74
2021/06/24 09:22:30;;;;;;;9.55;7.25;;;20.30;99.90;;;;;;5062310;28;20036;-73
2021/06/24 09:24:55;;;;;;;10.02;7.43;;;20.40;99.90;;;;;;5062101;28;20025;-73
2021/06/24 09:27:29;;;;;;;10.60;6.75;;;20.60;99.90;;;;;;5062782;28;20025;-74
2021/06/24 09:30:11;;;;;;;11.93;7.82;;;20.70;99.90;;;;;;5053478;28;20502;-73
2021/06/24 09:32:39;;;;;;;7.85;7.05;;;20.50;99.90;;;;;;5056485;28;20017;-73
2021/06/24 09:35:07;;;;;;;9.20;6.95;;;20.60;99.90;;;;;;5058822;28;20481;-74
2021/06/24 09:38:13;;;;;;;8.15;6.10;;;20.40;99.90;;;;;;5056154;28;20078;-73
2021/06/24 09:40:57;;;;;;;11.45;8.27;;;20.40;99.90;;;;;;5051459;28;20039;-74
2021/06/24 09:43:23;;;;;;;10.80;7.45;;;20.50;99.90;;;;;;5057233;28;20013;-74
2021/06/24 09:46:05;;;;;;;8.70;6.97;;;20.70;99.90;;;;;;5060005;28;20086;-74
2021/06/24 09:48:36;;;;;;;9.73;7.22;;;20.80;99.90;;;;;;5058119;28;20068;-74
2021/06/24 09:51:28;;;;;;;10.68;7.40;;;20.90;99.90;;;;;;5053446;28;20713;-74
2021/06/24 09:53:58;;;;;;;10.38;8.02;;;21.00;99.90;;;;;;5051900;28;20048;-74
2021/06/24 09:56:32;;;;;;;13.82;7.68;;;21.00;99.90;;;;;;5054981;28;20017;-75
2021/06/24 09:59:04;;;;;;;13.57;7.80;;;20.90;99.90;;;;;;5053829;28;20033;-74
2021/06/24 10:01:31;;;;;;;15.15;8.18;;;20.70;99.90;;;;;;5056617;28;20118;-75
2021/06/24 10:03:59;;;;;;;9.20;8.13;;;20.70;99.90;;;;;;5049105;28;20462;-74
2021/06/24 10:06:26;;;;;;;10.30;6.80;;;20.70;99.90;;;;;;5059061;28;20369;-74
2021/06/24 10:08:53;;;;;;;10.25;7.65;;;20.90;99.90;;;;;;5056049;28;20377;-75
2021/06/24 10:11:21;;;;;;;9.20;7.60;;;21.00;99.90;;;;;;5061384;28;20549;-73
2021/06/24 10:13:46;;;;;;;12.57;8.25;;;21.10;99.90;;;;;;5056134;28;20033;-74
2021/06/24 10:16:14;;;;;;;12.23;7.38;;;21.30;99.90;;;;;;5062507;28;20102;-74
2021/06/24 10:18:43;;;;;;;9.57;7.40;;;21.20;99.90;;;;;;5059657;28;20017;-72
2021/06/24 10:21:09;;;;;;;9.10;7.15;;;21.10;99.90;;;;;;5049290;28;20087;-72
2021/06/24 10:23:35;;;;;;;8.40;6.75;;;21.20;99.90;;;;;;5055540;28;20031;-72
2021/06/24 10:26:03;;;;;;;12.32;7.55;;;21.30;99.90;;;;;;5057396;28;20039;-71
2021/06/24 10:28:28;;;;;;;11.77;7.57;;;21.30;99.90;;;;;;5052781;28;20439;-72
2021/06/24 10:30:54;;;;;;;13.93;7.53;;;21.20;99.90;;;;;;5055597;28;20556;-73
2021/06/24 10:33:20;;;;;;;12.75;9.32;;;21.10;99.90;;;;;;5050115;28;20112;-73
2021/06/24 10:35:52;;;;;;;10.90;9.80;;;21.20;99.90;;;;;;5052936;28;20389;-73
2021/06/24 10:38:18;;;;;;;14.45;8.90;;;21.20;99.90;;;;;;5064145;28;20082;-73
2021/06/24 10:41:04;;;;;;;12.10;8.77;;;21.20;99.90;;;;;;5056979;28;20036;-73
2021/06/24 10:43:50;;;;;;;14.02;8.95;;;21.30;99.90;;;;;;5057388;28;20108;-73
2021/06/24 10:46:20;;;;;;;11.00;8.63;;;21.20;99.90;;;;;;5050304;28;20028;-73
2021/06/24 10:48:46;;;;;;;9.95;7.93;;;21.20;99.90;;;;;;5056972;28;20127;-74
2021/06/24 10:51:14;;;;;;;10.75;8.30;;;21.10;99.90;;;;;;5051896;28;20520;-73
2021/06/24 10:53:42;;;;;;;9.10;7.97;;;21.10;99.90;;;;;;5052456;28;20477;-73
2021/06/24 10:56:21;;;;;;;14.98;8.82;;;21.00;99.90;;;;;;5057905;28;20025;-73
2021/06/24 10:58:47;;;;;;;14.60;8.30;;;20.90;99.90;;;;;;5050432;28;20078;-74
2021/06/24 11:01:12;;;;;;;11.05;7.93;;;20.90;99.90;;;;;;5043284;28;20025;-73
2021/06/24 11:03:44;;;;;;;11.07;7.78;;;20.90;99.90;;;;;;5052150;28;20029;-73
2021/06/24 11:06:12;;;;;;;8.85;7.00;;;20.90;99.90;;;;;;5046590;28;20086;-73
2021/06/24 11:08:40;;;;;;;10.02;7.00;;;21.00;99.90;;;;;;5044239;28;20025;-73
2021/06/24 11:11:14;;;;;;;10.10;7.47;;;21.10;99.90;;;;;;5044796;28;20555;-73
2021/06/24 11:13:50;;;;;;;10.15;7.47;;;21.00;99.90;;;;;;5048323;28;20028;-73
2021/06/24 11:16:16;;;;;;;11.10;7.53;;;21.00;99.90;;;;;;5047878;28;20405;-72
2021/06/24 11:18:45;;;;;;;9.68;6.90;;;21.10;99.90;;;;;;5043784;28;20369;-73
2021/06/24 11:21:22;;;;;;;14.10;10.13;;;21.00;99.90;;;;;;5046092;28;20518;-73
2021/06/24 11:23:58;;;;;;;13.18;7.72;;;21.00;99.90;;;;;;5045081;28;20025;-71
2021/06/24 11:26:24;;;;;;;11.60;7.40;;;21.10;99.90;;;;;;5049258;28;20037;-71
2021/06/24 11:31:34;;;;;;;12.80;7.90;;;21.20;99.90;;;;;;5048259;28;20037;-74
2021/06/24 11:36:33;;;;;;;17.70;8.70;;;21.30;99.90;;;;;;5045141;28;20033;-74
2021/06/24 11:38:58;;;;;;;9.80;8.27;;;21.10;99.90;;;;;;5047225;28;20047;-74
2021/06/24 11:41:24;;;;;;;7.75;7.05;;;21.20;99.90;;;;;;5049105;28;20496;-74
2021/06/24 11:43:58;;;;;;;14.68;8.80;;;21.40;99.90;;;;;;5049487;28;20616;-73
2021/06/24 11:46:29;;;;;;;11.93;8.18;;;21.60;99.90;;;;;;5049020;28;20072;-73
2021/06/24 11:49:16;;;;;;;10.32;8.13;;;21.80;99.90;;;;;;5047791;28;20108;-73
2021/06/24 12:05:10;;;;;;;16.65;10.55;;;22.60;99.90;;;;;;5051674;28;20041;-73
2021/06/24 12:07:36;;;;;;;13.02;10.43;;;22.60;99.90;;;;;;5053649;28;20096;-74
2021/06/24 12:10:04;;;;;;;16.95;10.15;;;22.30;99.90;;;;;;5052070;28;20029;-73
2021/06/24 12:12:31;;;;;;;11.00;9.50;;;22.20;99.90;;;;;;5044817;28;20022;-73
2021/06/24 12:15:01;;;;;;;13.30;9.70;;;22.20;99.90;;;;;;5052087;28;20060;-74
2021/06/24 12:17:31;;;;;;;13.95;10.80;;;22.30;99.90;;;;;;5053182;28;20021;-74
2021/06/24 12:20:20;;;;;;;22.00;11.85;;;22.40;99.90;;;;;;5052974;28;20488;-73
2021/06/24 12:22:59;;;;;;;15.77;11.98;;;22.50;99.90;;;;;;5054011;28;20531;-73
2021/06/24 12:25:27;;;;;;;18.83;10.35;;;22.40;99.90;;;;;;5048906;28;20481;-73
2021/06/24 12:28:04;;;;;;;15.43;10.77;;;22.50;99.90;;;;;;5045758;28;20067;-73
2021/06/24 12:30:41;;;;;;;14.50;9.82;;;22.40;99.90;;;;;;5048083;28;20481;-73
2021/06/24 12:33:09;;;;;;;13.35;9.75;;;22.50;99.90;;;;;;5050164;28;20017;-74
2021/06/24 12:35:38;;;;;;;12.20;10.05;;;22.60;99.90;;;;;;5049045;28;20033;-73
2021/06/24 12:38:09;;;;;;;14.90;11.32;;;22.70;99.90;;;;;;5053128;28;20021;-73
2021/06/24 12:40:38;;;;;;;14.52;10.70;;;22.50;99.90;;;;;;5062337;28;20032;-73
2021/06/24 12:43:07;;;;;;;16.92;11.50;;;22.50;99.90;;;;;;5053252;28;20036;-72
2021/06/24 12:45:37;;;;;;;15.93;11.25;;;22.30;99.90;;;;;;5052755;28;20033;-72
2021/06/24 12:48:04;;;;;;;15.27;10.82;;;22.30;99.90;;;;;;5060711;28;20016;-73
2021/06/24 12:50:31;;;;;;;14.40;10.25;;;22.30;99.90;;;;;;5065932;28;20031;-73